X  Schlie├čen METAR Luftfahrt Wetterdaten     LDPL Pula Airport
Temperatur
20°C Temperatur
18°C Taupunkt
88% Feuchtigkeit



Wind
5 KM/S
3 MPS
1 M/S
3 KTS



60°
ONO
Aktuelle Wetterlage

Klar Klar
Luftdruck 1010.92 (hPa) - 29.85 (inHg)
Sichtweite 6.2 (Meile) - 10 (Km)
Flughafen
Flughafen Code LDPL

Position : Pula Airport
Entfernung: 39 (Km)

Metar:
LDPL 300030Z 06003KT CAVOK 20/18 Q1011

Zeit: 30-06-2022 02:30 CEST